AirNav   Bose ProFlight Series 2 Headset
 
 626 users online  

01SC York Airport
York, South Carolina, USA

GOING TO YORK?


FAA INFORMATION EFFECTIVE 27 FEBRUARY 2020

Location

FAA Identifier: 01SC
Lat/Long: 35-01-55.4860N 081-15-10.0000W
35-01.924767N 081-15.166667W
35.0320794,-81.2527778
(estimated)
Elevation: 779 ft. / 237.4 m (surveyed)
Variation: 05W (1985)
From city: 3 miles N of YORK, SC
Time zone: UTC -5 (UTC -4 during Daylight Saving Time)
Zip code: 29745

Airport Operations

Airport use: Private use. Permission required prior to landing
Activation date: 01/1960
Control tower: no
ARTCC: ATLANTA CENTER
FSS: ANDERSON FLIGHT SERVICE STATION
Attendance: UNATNDD
Wind indicator: yes
Segmented circle: no

Airport Communications

CTAF: 122.9
WX ASOS at UZA (10 nm E): 120.775 (803-981-9388)
WX ASOS at AKH (11 nm NE): 135.725 (704-868-9034)
WX AWOS-3 at DCM (15 nm S): 120.975 (803-385-2011)
WX ASOS at CLT (18 nm NE): 121.15 (704-359-0235)

Nearby radio navigation aids

VOR radial/distance  VOR name  Freq  Var
CLTr242/17.6CHARLOTTE VOR/DME115.0005W
SPAr092/33.1SPARTANBURG VORTAC115.7002W

 
NDB name  Hdg/Dist  Freq  Var  ID
STONIA212/10.626006WGHJ --. .... .---
RALLY320/12.022705WUZ ..- --..
CHESTER356/15.022006WDCM -.. -.-. --
FIRST RIVER134/21.541706WSLP ... .-.. .--.
LANCASTER321/26.840007WLKR .-.. -.- .-.
UNION COUNTY049/28.432606WUOT ..- --- -
FAIRMONT083/36.924805WFRT ..-. .-. -

Airport Services

Parking: tiedowns
Airframe service: MINOR
Powerplant service: MINOR
Bottled oxygen: NONE
Bulk oxygen: NONE

Runway Information

Runway 18/36

Dimensions: 2580 x 118 ft. / 786 x 36 m
Surface: turf, in fair condition
RUNWAY 18  RUNWAY 36
Traffic pattern: leftleft
Runway end identifier lights: nono
Obstructions: 40 ft. trees, 75 ft. from runway, 70 ft. right of centerline, 1:1 slope to clear10 ft. road

Airport Ownership and Management from official FAA records

Ownership: Privately-owned
Owner: YORK AVIATION SERVICES
2551 GOINS LANE
YORK, SC 29745
Phone 803-628-1065
Manager: EDDIE SHIELDS
2551 GOINS LANE
YORK, SC 29745
Phone 704-616-2001

Airport Operational Statistics

Aircraft based on the field: 16
Single engine airplanes: 16
    
Aircraft operations: avg 62/week *
69% local general aviation
31% transient general aviation
* for 12-month period ending 15 August 1990

Additional Remarks

RWY 18/36 HAS A SEVERE LINE OF SIGHT PROBLEM.
RY 18 HAS A DIRT ROAD AT THR.
RY 18 HAS 70 FT TREES 600 FT FROM THR 75 FT L.
RY 36 HAS 35 FT PLINE AT THR 120 FT LEFT AND EXTENDS OUTWARDS.
RY 36 HAS SMALL SHRUBS 70 FT FROM THR 80 FT R.
A/P AVAIL ON CALL.
FOR CD CTC CHARLOTTE APCH AT 704-359-0241.

Instrument Procedures

There are no published instrument procedures at 01SC.

Some nearby airports with instrument procedures:

KUZA - Rock Hill (York Co) Airport-Bryant Field (10 nm E)
KAKH - Gastonia Municipal Airport (11 nm NE)
KDCM - Chester Catawba Regional Airport (15 nm S)
KCLT - Charlotte/Douglas International Airport (18 nm NE)
KEHO - Shelby-Cleveland County Regional Airport (22 nm NW)
 
Loc | Ops | Rwys | IFR | FBO | Links
Com | Nav | Svcs | Stats | Notes
Area around 01SC (York Airport)
 
Road maps at: MapQuest Bing Google
 
Aerial photo
WARNING: Photo may not be current or correct
Aerial photo of 01SC (York Airport)
Photo by Amanda Maylor
at or about 800' AGL, looking east.

Do you have a better or more recent aerial photo of York Airport that you would like to share? If so, please send us your photo.

 
Sectional chart

 
Airport distance calculator
Flying to York Airport? Find the distance to fly.

From to 01SC

Sunrise and sunset
Times for 29-Feb-2020
 Local
(UTC-5)
 Zulu
(UTC)
Morning civil twilight06:3011:30
Sunrise06:5611:56
Sunset18:1923:19
Evening civil twilight18:4523:45

Current date and time
Zulu (UTC)  29-Feb-2020 06:09:24
Local (UTC-5)  29-Feb-2020 01:09:24
 
METAR
KUZA 
10nm E 
290554Z AUTO 24007KT 10SM CLR 02/M03 A3006 RMK AO2 SLP181 T00221033 10078 21006 58003
KAKH 
11nm NE 
290554Z AUTO 23003KT 10SM CLR 02/M03 A3004 RMK AO2 SLP175 T00171033 10072 20011 58004
KDCM 
15nm S 
290555Z AUTO 24003KT 5SM HZ CLR 02/M03 A3008 RMK AO2
KCLT 
19nm NE 
290552Z 23006KT 10SM FEW060 01/M03 A3004 RMK AO2 SLP175 T00111033 10072 20011 58004
TAF
KCLT 
19nm NE 
290539Z 2906/0112 25004KT P6SM FEW060 FM291300 28007KT P6SM FEW250 FM291500 31010G17KT P6SM FEW050 FM010000 33003KT P6SM SKC
NOTAMs
Click for the latest NOTAMs
NOTAMs are issued by the DoD/FAA and will open in a separate window not controlled by AirNav.

 

 
 

Would you like to see your business listed on this page?

 If your business provides an interesting product or service to pilots, flight crews, aircraft, or users of the York Airport, you should consider listing it here.  To start the listing process, click on the button below
 
Add a business
 

Other Pages about York Airport

Update a link
 
Copyright © AirNav, LLC. All rights reserved. Privacy Policy  Contact